^^
NorthLandsweather Station Historical Data
Daily Summary for January 12, 2019 Units:  Both    English   Metric
Daily Weekly Monthly Yearly Custom
  High: Low: Average:
Temperature: 28.0 °F /  -2.2 °C 26.3 °F /  -3.2 °C 27.1 °F /  -2.7 °C
Dew Point: 24.4 °F /  -4.2 °C 20.3 °F /  -6.5 °C 22.4 °F /  -5.3 °C
Humidity: 88% 75% 82%
Wind Speed: 3.5mph /  5.6km/h - 0.2mph /  0.3km/h
Wind Gust: 0.9mph /  1.4km/h - -
Wind- - ENE
Pressure: 30.54 in /  1034.1 hPa 30.37 in /  1028.3 hPa -
Precipitation: 0.00 in /  0 mm    
Historical Graphs
 
 
Tabular Data for January 12, 2019
Time Temperature Dew Point Pressure Wind Wind Speed Wind Gust Humidity Rainfall Rate (Hourly) solar
00:04 27.9 °F /  -2.3 °C 21.3 °F /  -5.9 °C 30.38in /  1028.7hPa Calm     76% 0.00in /  0mm 0.00 W/m2
00:09 27.9 °F /  -2.3 °C 21.3 °F /  -5.9 °C 30.37in /  1028.3hPa Calm     76% 0.00in /  0mm 0.00 W/m2
00:14 27.8 °F /  -2.3 °C 21.2 °F /  -6 °C 30.37in /  1028.3hPa Calm     76% 0.00in /  0mm 0.00 W/m2
00:19 27.7 °F /  -2.4 °C 21.1 °F /  -6.1 °C 30.38in /  1028.7hPa Calm     76% 0.00in /  0mm 0.00 W/m2
00:24 27.7 °F /  -2.4 °C 21.4 °F /  -5.9 °C 30.38in /  1028.7hPa Calm     77% 0.00in /  0mm 0.00 W/m2
00:29 27.7 °F /  -2.4 °C 21.4 °F /  -5.9 °C 30.38in /  1028.7hPa Calm     77% 0.00in /  0mm 0.00 W/m2
00:34 27.7 °F /  -2.4 °C 21.4 °F /  -5.9 °C 30.38in /  1028.7hPa Calm     77% 0.00in /  0mm 0.00 W/m2
00:39 27.7 °F /  -2.4 °C 21.4 °F /  -5.9 °C 30.38in /  1028.7hPa Calm     77% 0.00in /  0mm 0.00 W/m2
00:44 27.7 °F /  -2.4 °C 21.4 °F /  -5.9 °C 30.38in /  1028.7hPa Calm     77% 0.00in /  0mm 0.00 W/m2
00:49 27.7 °F /  -2.4 °C 21.4 °F /  -5.9 °C 30.38in /  1028.7hPa Calm     77% 0.00in /  0mm 0.00 W/m2
00:54 27.7 °F /  -2.4 °C 21.4 °F /  -5.9 °C 30.38in /  1028.7hPa Calm     77% 0.00in /  0mm 0.00 W/m2
00:59 27.7 °F /  -2.4 °C 21.1 °F /  -6.1 °C 30.38in /  1028.7hPa Calm     76% 0.00in /  0mm 0.00 W/m2
01:04 27.7 °F /  -2.4 °C 21.4 °F /  -5.9 °C 30.39in /  1029hPa Calm     77% 0.00in /  0mm 0.00 W/m2
01:09 27.7 °F /  -2.4 °C 21.4 °F /  -5.9 °C 30.38in /  1028.7hPa Calm     77% 0.00in /  0mm 0.00 W/m2
01:14 27.7 °F /  -2.4 °C 21.4 °F /  -5.9 °C 30.38in /  1028.7hPa Calm     77% 0.00in /  0mm 0.00 W/m2
01:19 27.7 °F /  -2.4 °C 21.1 °F /  -6.1 °C 30.39in /  1029hPa Calm     76% 0.00in /  0mm 0.00 W/m2
01:24 27.6 °F /  -2.4 °C 21.0 °F /  -6.1 °C 30.39in /  1029hPa Calm     76% 0.00in /  0mm 0.00 W/m2
01:29 27.6 °F /  -2.4 °C 21.3 °F /  -5.9 °C 30.39in /  1029hPa Calm     77% 0.00in /  0mm 0.00 W/m2
01:34 27.6 °F /  -2.4 °C 21.3 °F /  -5.9 °C 30.39in /  1029hPa Calm     77% 0.00in /  0mm 0.00 W/m2
01:39 27.6 °F /  -2.4 °C 21.3 °F /  -5.9 °C 30.39in /  1029hPa Calm     77% 0.00in /  0mm 0.00 W/m2
01:44 27.6 °F /  -2.4 °C 21.3 °F /  -5.9 °C 30.39in /  1029hPa Calm     77% 0.00in /  0mm 0.00 W/m2
01:49 27.5 °F /  -2.5 °C 21.2 °F /  -6 °C 30.39in /  1029hPa Calm     77% 0.00in /  0mm 0.00 W/m2
01:54 27.5 °F /  -2.5 °C 20.9 °F /  -6.2 °C 30.39in /  1029hPa Calm     76% 0.00in /  0mm 0.00 W/m2
01:59 27.5 °F /  -2.5 °C 21.2 °F /  -6 °C 30.39in /  1029hPa Calm     77% 0.00in /  0mm 0.00 W/m2
02:04 27.5 °F /  -2.5 °C 21.2 °F /  -6 °C 30.40in /  1029.3hPa Calm     77% 0.00in /  0mm 0.00 W/m2
02:09 27.5 °F /  -2.5 °C 21.2 °F /  -6 °C 30.40in /  1029.3hPa Calm     77% 0.00in /  0mm 0.00 W/m2
02:14 27.5 °F /  -2.5 °C 21.2 °F /  -6 °C 30.40in /  1029.3hPa Calm     77% 0.00in /  0mm 0.00 W/m2
02:19 27.5 °F /  -2.5 °C 21.2 °F /  -6 °C 30.40in /  1029.3hPa Calm     77% 0.00in /  0mm 0.00 W/m2
02:24 27.5 °F /  -2.5 °C 20.9 °F /  -6.2 °C 30.40in /  1029.3hPa Calm     76% 0.00in /  0mm 0.00 W/m2
02:29 27.4 °F /  -2.6 °C 20.8 °F /  -6.2 °C 30.40in /  1029.3hPa Calm     76% 0.00in /  0mm 0.00 W/m2
02:34 27.4 °F /  -2.6 °C 21.1 °F /  -6.1 °C 30.40in /  1029.3hPa Calm     77% 0.00in /  0mm 0.00 W/m2
02:39 27.4 °F /  -2.6 °C 21.4 °F /  -5.9 °C 30.41in /  1029.7hPa Calm     78% 0.00in /  0mm 0.00 W/m2
02:44 27.4 °F /  -2.6 °C 21.1 °F /  -6.1 °C 30.41in /  1029.7hPa Calm     77% 0.00in /  0mm 0.00 W/m2
02:48 27.4 °F /  -2.6 °C 20.8 °F /  -6.2 °C 30.41in /  1029.7hPa Calm     76% 0.00in /  0mm 0.00 W/m2
02:54 27.4 °F /  -2.6 °C 20.8 °F /  -6.2 °C 30.41in /  1029.7hPa Calm     76% 0.00in /  0mm 0.00 W/m2
02:59 27.4 °F /  -2.6 °C 20.8 °F /  -6.2 °C 30.41in /  1029.7hPa Calm     76% 0.00in /  0mm 0.00 W/m2
03:04 27.4 °F /  -2.6 °C 20.8 °F /  -6.2 °C 30.41in /  1029.7hPa Calm     76% 0.00in /  0mm 0.00 W/m2
03:09 27.4 °F /  -2.6 °C 20.8 °F /  -6.2 °C 30.41in /  1029.7hPa Calm     76% 0.00in /  0mm 0.00 W/m2
03:14 27.4 °F /  -2.6 °C 20.8 °F /  -6.2 °C 30.41in /  1029.7hPa Calm     76% 0.00in /  0mm 0.00 W/m2
03:19 27.4 °F /  -2.6 °C 20.8 °F /  -6.2 °C 30.41in /  1029.7hPa Calm     76% 0.00in /  0mm 0.00 W/m2
03:24 27.3 °F /  -2.6 °C 20.7 °F /  -6.3 °C 30.41in /  1029.7hPa Calm     76% 0.00in /  0mm 0.00 W/m2
03:29 27.3 °F /  -2.6 °C 21.0 °F /  -6.1 °C 30.41in /  1029.7hPa Calm     77% 0.00in /  0mm 0.00 W/m2
03:34 27.3 °F /  -2.6 °C 20.7 °F /  -6.3 °C 30.42in /  1030hPa Calm     76% 0.00in /  0mm 0.00 W/m2
03:39 27.3 °F /  -2.6 °C 20.7 °F /  -6.3 °C 30.42in /  1030hPa Calm     76% 0.00in /  0mm 0.00 W/m2
03:44 27.3 °F /  -2.6 °C 20.7 °F /  -6.3 °C 30.42in /  1030hPa Calm     76% 0.00in /  0mm 0.00 W/m2
03:49 27.3 °F /  -2.6 °C 20.7 °F /  -6.3 °C 30.42in /  1030hPa Calm     76% 0.00in /  0mm 0.00 W/m2
03:54 27.3 °F /  -2.6 °C 20.7 °F /  -6.3 °C 30.42in /  1030hPa Calm     76% 0.00in /  0mm 0.00 W/m2
03:59 27.3 °F /  -2.6 °C 20.7 °F /  -6.3 °C 30.42in /  1030hPa Calm     76% 0.00in /  0mm 0.00 W/m2
04:04 27.3 °F /  -2.6 °C 20.4 °F /  -6.4 °C 30.42in /  1030hPa Calm     75% 0.00in /  0mm 0.00 W/m2
04:09 27.3 °F /  -2.6 °C 20.4 °F /  -6.4 °C 30.42in /  1030hPa Calm     75% 0.00in /  0mm 0.00 W/m2
04:14 27.3 °F /  -2.6 °C 20.4 °F /  -6.4 °C 30.42in /  1030hPa Calm     75% 0.00in /  0mm 0.00 W/m2
04:19 27.2 °F /  -2.7 °C 20.3 °F /  -6.5 °C 30.42in /  1030hPa Calm     75% 0.00in /  0mm 0.00 W/m2
04:24 27.3 °F /  -2.6 °C 20.7 °F /  -6.3 °C 30.42in /  1030hPa Calm     76% 0.00in /  0mm 0.00 W/m2
04:29 27.3 °F /  -2.6 °C 20.4 °F /  -6.4 °C 30.42in /  1030hPa Calm     75% 0.00in /  0mm 0.00 W/m2
04:34 27.3 °F /  -2.6 °C 20.4 °F /  -6.4 °C 30.42in /  1030hPa Calm     75% 0.00in /  0mm 0.00 W/m2
04:39 27.3 °F /  -2.6 °C 20.7 °F /  -6.3 °C 30.42in /  1030hPa Calm     76% 0.00in /  0mm 0.00 W/m2
04:44 27.2 °F /  -2.7 °C 20.6 °F /  -6.3 °C 30.42in /  1030hPa Calm     76% 0.00in /  0mm 0.00 W/m2
04:49 27.2 °F /  -2.7 °C 20.6 °F /  -6.3 °C 30.43in /  1030.4hPa Calm     76% 0.00in /  0mm 0.00 W/m2
04:54 27.2 °F /  -2.7 °C 20.6 °F /  -6.3 °C 30.43in /  1030.4hPa Calm     76% 0.00in /  0mm 0.00 W/m2
04:59 27.2 °F /  -2.7 °C 20.3 °F /  -6.5 °C 30.43in /  1030.4hPa Calm     75% 0.00in /  0mm 0.00 W/m2
05:04 27.2 °F /  -2.7 °C 20.6 °F /  -6.3 °C 30.43in /  1030.4hPa Calm     76% 0.00in /  0mm 0.00 W/m2
05:09 27.2 °F /  -2.7 °C 20.9 °F /  -6.2 °C 30.43in /  1030.4hPa Calm     77% 0.00in /  0mm 0.00 W/m2
05:14 27.1 °F /  -2.7 °C 20.5 °F /  -6.4 °C 30.44in /  1030.7hPa Calm     76% 0.00in /  0mm 0.00 W/m2
05:19 27.1 °F /  -2.7 °C 20.5 °F /  -6.4 °C 30.44in /  1030.7hPa Calm     76% 0.00in /  0mm 0.00 W/m2
05:24 27.1 °F /  -2.7 °C 20.5 °F /  -6.4 °C 30.44in /  1030.7hPa Calm     76% 0.00in /  0mm 0.00 W/m2
05:29 27.1 °F /  -2.7 °C 20.5 °F /  -6.4 °C 30.44in /  1030.7hPa Calm     76% 0.00in /  0mm 0.00 W/m2
05:34 27.1 °F /  -2.7 °C 20.5 °F /  -6.4 °C 30.44in /  1030.7hPa Calm     76% 0.00in /  0mm 0.00 W/m2
05:39 27.1 °F /  -2.7 °C 20.5 °F /  -6.4 °C 30.44in /  1030.7hPa Calm     76% 0.00in /  0mm 0.00 W/m2
05:44 27.2 °F /  -2.7 °C 20.6 °F /  -6.3 °C 30.44in /  1030.7hPa Calm     76% 0.00in /  0mm 0.00 W/m2
05:49 27.2 °F /  -2.7 °C 20.9 °F /  -6.2 °C 30.44in /  1030.7hPa Calm     77% 0.00in /  0mm 0.00 W/m2
05:54 27.1 °F /  -2.7 °C 20.8 °F /  -6.2 °C 30.44in /  1030.7hPa Calm     77% 0.00in /  0mm 0.00 W/m2
05:59 27.1 °F /  -2.7 °C 20.8 °F /  -6.2 °C 30.44in /  1030.7hPa Calm     77% 0.00in /  0mm 0.00 W/m2
06:04 27.1 °F /  -2.7 °C 21.2 °F /  -6 °C 30.44in /  1030.7hPa Calm     78% 0.00in /  0mm 0.00 W/m2
06:09 27.1 °F /  -2.7 °C 21.2 °F /  -6 °C 30.44in /  1030.7hPa Calm     78% 0.00in /  0mm 0.00 W/m2
06:14 27.0 °F /  -2.8 °C 21.1 °F /  -6.1 °C 30.44in /  1030.7hPa Calm     78% 0.00in /  0mm 0.00 W/m2
06:19 27.0 °F /  -2.8 °C 21.1 °F /  -6.1 °C 30.44in /  1030.7hPa Calm     78% 0.00in /  0mm 0.00 W/m2
06:24 27.0 °F /  -2.8 °C 21.1 °F /  -6.1 °C 30.44in /  1030.7hPa Calm     78% 0.00in /  0mm 0.00 W/m2
06:29 26.9 °F /  -2.8 °C 21.0 °F /  -6.1 °C 30.44in /  1030.7hPa Calm     78% 0.00in /  0mm 0.00 W/m2
06:34 26.9 °F /  -2.8 °C 21.0 °F /  -6.1 °C 30.44in /  1030.7hPa Calm     78% 0.00in /  0mm 0.00 W/m2
06:39 26.9 °F /  -2.8 °C 21.0 °F /  -6.1 °C 30.44in /  1030.7hPa Calm     78% 0.00in /  0mm 0.00 W/m2
06:44 26.9 °F /  -2.8 °C 21.0 °F /  -6.1 °C 30.44in /  1030.7hPa Calm     78% 0.00in /  0mm 0.00 W/m2
06:49 26.8 °F /  -2.9 °C 20.9 °F /  -6.2 °C 30.44in /  1030.7hPa Calm     78% 0.00in /  0mm 0.00 W/m2
06:54 26.8 °F /  -2.9 °C 20.9 °F /  -6.2 °C 30.44in /  1030.7hPa Calm     78% 0.00in /  0mm 0.00 W/m2
06:59 26.7 °F /  -2.9 °C 21.1 °F /  -6.1 °C 30.44in /  1030.7hPa Calm     79% 0.00in /  0mm 0.00 W/m2
07:04 26.7 °F /  -2.9 °C 20.8 °F /  -6.2 °C 30.45in /  1031hPa Calm     78% 0.00in /  0mm 0.00 W/m2
07:09 26.7 °F /  -2.9 °C 20.8 °F /  -6.2 °C 30.45in /  1031hPa Calm     78% 0.00in /  0mm 0.00 W/m2
07:14 26.7 °F /  -2.9 °C 20.8 °F /  -6.2 °C 30.45in /  1031hPa Calm     78% 0.00in /  0mm 0.00 W/m2
07:19 26.7 °F /  -2.9 °C 21.1 °F /  -6.1 °C 30.45in /  1031hPa Calm     79% 0.00in /  0mm 0.00 W/m2
07:24 26.7 °F /  -2.9 °C 21.1 °F /  -6.1 °C 30.45in /  1031hPa Calm     79% 0.00in /  0mm 0.00 W/m2
07:29 26.7 °F /  -2.9 °C 21.1 °F /  -6.1 °C 30.45in /  1031hPa Calm     79% 0.00in /  0mm 0.00 W/m2
07:34 26.7 °F /  -2.9 °C 21.1 °F /  -6.1 °C 30.45in /  1031hPa Calm     79% 0.00in /  0mm 0.00 W/m2
07:39 26.7 °F /  -2.9 °C 20.8 °F /  -6.2 °C 30.45in /  1031hPa Calm     78% 0.00in /  0mm 0.00 W/m2
07:44 26.6 °F /  -3 °C 20.7 °F /  -6.3 °C 30.45in /  1031hPa Calm     78% 0.00in /  0mm 34.00 W/m2
07:49 26.6 °F /  -3 °C 20.7 °F /  -6.3 °C 30.45in /  1031hPa ENE 1.2mph /  1.9km/h 0.2mph /  0.3km/h 78% 0.00in /  0mm 68.40 W/m2
07:54 26.6 °F /  -3 °C 20.7 °F /  -6.3 °C 30.45in /  1031hPa ENE 1.2mph /  1.9km/h 0.1mph /  0.2km/h 78% 0.00in /  0mm 98.70 W/m2
07:59 26.6 °F /  -3 °C 21.0 °F /  -6.1 °C 30.45in /  1031hPa Calm     79% 0.00in /  0mm 116.80 W/m2
08:04 26.6 °F /  -3 °C 20.7 °F /  -6.3 °C 30.46in /  1031.4hPa Calm   0.3mph /  0.5km/h 78% 0.00in /  0mm 122.90 W/m2
08:09 26.6 °F /  -3 °C 21.0 °F /  -6.1 °C 30.46in /  1031.4hPa Calm     79% 0.00in /  0mm 136.00 W/m2
08:14 26.6 °F /  -3 °C 20.7 °F /  -6.3 °C 30.46in /  1031.4hPa Calm     78% 0.00in /  0mm 150.20 W/m2
08:19 26.7 °F /  -2.9 °C 20.8 °F /  -6.2 °C 30.47in /  1031.7hPa Calm   0.4mph /  0.6km/h 78% 0.00in /  0mm 152.20 W/m2
08:24 26.7 °F /  -2.9 °C 20.8 °F /  -6.2 °C 30.47in /  1031.7hPa ENE 1.2mph /  1.9km/h   78% 0.00in /  0mm 159.30 W/m2
08:29 26.6 °F /  -3 °C 21.0 °F /  -6.1 °C 30.47in /  1031.7hPa Calm     79% 0.00in /  0mm 161.30 W/m2
08:34 26.7 °F /  -2.9 °C 21.1 °F /  -6.1 °C 30.47in /  1031.7hPa Calm   0.1mph /  0.2km/h 79% 0.00in /  0mm 169.40 W/m2
08:39 26.7 °F /  -2.9 °C 21.1 °F /  -6.1 °C 30.48in /  1032.1hPa Calm     79% 0.00in /  0mm 172.40 W/m2
08:44 26.7 °F /  -2.9 °C 21.1 °F /  -6.1 °C 30.48in /  1032.1hPa Calm     79% 0.00in /  0mm 169.40 W/m2
08:49 26.8 °F /  -2.9 °C 21.2 °F /  -6 °C 30.48in /  1032.1hPa Calm     79% 0.00in /  0mm 181.50 W/m2
08:54 26.8 °F /  -2.9 °C 21.2 °F /  -6 °C 30.48in /  1032.1hPa Calm     79% 0.00in /  0mm 188.60 W/m2
08:59 26.8 °F /  -2.9 °C 21.2 °F /  -6 °C 30.48in /  1032.1hPa Calm     79% 0.00in /  0mm 189.60 W/m2
09:04 26.8 °F /  -2.9 °C 21.2 °F /  -6 °C 30.48in /  1032.1hPa Calm     79% 0.00in /  0mm 191.60 W/m2
09:09 26.8 °F /  -2.9 °C 21.2 °F /  -6 °C 30.48in /  1032.1hPa Calm     79% 0.00in /  0mm 192.60 W/m2
09:14 26.9 °F /  -2.8 °C 21.3 °F /  -5.9 °C 30.49in /  1032.4hPa Calm     79% 0.00in /  0mm 193.60 W/m2
09:19 26.9 °F /  -2.8 °C 21.3 °F /  -5.9 °C 30.49in /  1032.4hPa Calm     79% 0.00in /  0mm 196.60 W/m2
09:24 26.9 °F /  -2.8 °C 21.3 °F /  -5.9 °C 30.49in /  1032.4hPa Calm     79% 0.00in /  0mm 192.60 W/m2
09:29 26.9 °F /  -2.8 °C 21.3 °F /  -5.9 °C 30.49in /  1032.4hPa Calm     79% 0.00in /  0mm 199.70 W/m2
09:33 27.0 °F /  -2.8 °C 21.7 °F /  -5.7 °C 30.49in /  1032.4hPa Calm     80% 0.00in /  0mm 203.70 W/m2
09:39 27.0 °F /  -2.8 °C 21.4 °F /  -5.9 °C 30.50in /  1032.7hPa ENE 1.2mph /  1.9km/h   79% 0.00in /  0mm 203.70 W/m2
09:44 27.0 °F /  -2.8 °C 21.4 °F /  -5.9 °C 30.50in /  1032.7hPa ENE 1.2mph /  1.9km/h 0.1mph /  0.2km/h 79% 0.00in /  0mm 206.70 W/m2
09:49 27.0 °F /  -2.8 °C 21.7 °F /  -5.7 °C 30.50in /  1032.7hPa Calm     80% 0.00in /  0mm 208.80 W/m2
09:54 27.0 °F /  -2.8 °C 21.7 °F /  -5.7 °C 30.50in /  1032.7hPa Calm     80% 0.00in /  0mm 211.80 W/m2
09:59 27.1 °F /  -2.7 °C 21.7 °F /  -5.7 °C 30.51in /  1033.1hPa Calm     80% 0.00in /  0mm 211.80 W/m2
10:02 27.1 °F /  -2.7 °C 21.7 °F /  -5.7 °C 30.50in /  1032.7hPa Calm     80% 0.00in /  0mm 217.80 W/m2
10:09 27.2 °F /  -2.7 °C 21.8 °F /  -5.7 °C 30.51in /  1033.1hPa Calm     80% 0.00in /  0mm 217.80 W/m2
10:14 27.3 °F /  -2.6 °C 21.9 °F /  -5.6 °C 30.51in /  1033.1hPa ENE 1.2mph /  1.9km/h   80% 0.00in /  0mm 219.90 W/m2
10:19 27.3 °F /  -2.6 °C 21.9 °F /  -5.6 °C 30.51in /  1033.1hPa Calm     80% 0.00in /  0mm 219.90 W/m2
10:24 27.4 °F /  -2.6 °C 22.0 °F /  -5.6 °C 30.51in /  1033.1hPa Calm     80% 0.00in /  0mm 223.90 W/m2
10:29 27.3 °F /  -2.6 °C 21.9 °F /  -5.6 °C 30.51in /  1033.1hPa NE 2.3mph /  3.7km/h   80% 0.00in /  0mm 226.90 W/m2
10:34 27.3 °F /  -2.6 °C 22.2 °F /  -5.4 °C 30.51in /  1033.1hPa Calm     81% 0.00in /  0mm 227.90 W/m2
10:39 27.4 °F /  -2.6 °C 22.3 °F /  -5.4 °C 30.51in /  1033.1hPa Calm     81% 0.00in /  0mm 227.90 W/m2
10:44 27.4 °F /  -2.6 °C 22.3 °F /  -5.4 °C 30.51in /  1033.1hPa NE 3.5mph /  5.6km/h   81% 0.00in /  0mm 227.90 W/m2
10:49 27.4 °F /  -2.6 °C 22.6 °F /  -5.2 °C 30.51in /  1033.1hPa Calm   0.5mph /  0.8km/h 82% 0.00in /  0mm 224.90 W/m2
10:54 27.3 °F /  -2.6 °C 22.2 °F /  -5.4 °C 30.51in /  1033.1hPa ESE 2.3mph /  3.7km/h 0.1mph /  0.2km/h 81% 0.00in /  0mm 229.00 W/m2
10:58 27.3 °F /  -2.6 °C 22.5 °F /  -5.3 °C 30.50in /  1032.7hPa Calm     82% 0.00in /  0mm 229.00 W/m2
11:04 27.3 °F /  -2.6 °C 22.5 °F /  -5.3 °C 30.50in /  1032.7hPa Calm   0.1mph /  0.2km/h 82% 0.00in /  0mm 229.00 W/m2
11:09 27.4 °F /  -2.6 °C 22.9 °F /  -5.1 °C 30.50in /  1032.7hPa Calm     83% 0.00in /  0mm 240.10 W/m2
11:14 27.4 °F /  -2.6 °C 22.6 °F /  -5.2 °C 30.50in /  1032.7hPa East 3.5mph /  5.6km/h 0.4mph /  0.6km/h 82% 0.00in /  0mm 240.10 W/m2
11:19 27.4 °F /  -2.6 °C 22.9 °F /  -5.1 °C 30.50in /  1032.7hPa East 1.2mph /  1.9km/h   83% 0.00in /  0mm 233.00 W/m2
11:24 27.4 °F /  -2.6 °C 22.9 °F /  -5.1 °C 30.49in /  1032.4hPa Calm     83% 0.00in /  0mm 241.10 W/m2
11:29 27.5 °F /  -2.5 °C 23.0 °F /  -5 °C 30.49in /  1032.4hPa Calm     83% 0.00in /  0mm 237.00 W/m2
11:34 27.6 °F /  -2.4 °C 23.1 °F /  -4.9 °C 30.49in /  1032.4hPa Calm     83% 0.00in /  0mm 234.00 W/m2
11:39 27.6 °F /  -2.4 °C 23.4 °F /  -4.8 °C 30.49in /  1032.4hPa Calm   0.3mph /  0.5km/h 84% 0.00in /  0mm 236.00 W/m2
11:44 27.6 °F /  -2.4 °C 23.4 °F /  -4.8 °C 30.49in /  1032.4hPa Calm     84% 0.00in /  0mm 236.00 W/m2
11:49 27.6 °F /  -2.4 °C 23.4 °F /  -4.8 °C 30.49in /  1032.4hPa ENE 2.3mph /  3.7km/h   84% 0.00in /  0mm 233.00 W/m2
11:54 27.5 °F /  -2.5 °C 23.3 °F /  -4.8 °C 30.49in /  1032.4hPa ENE 1.2mph /  1.9km/h   84% 0.00in /  0mm 229.00 W/m2
11:59 27.5 °F /  -2.5 °C 23.3 °F /  -4.8 °C 30.49in /  1032.4hPa Calm     84% 0.00in /  0mm 231.00 W/m2
12:04 27.5 °F /  -2.5 °C 23.3 °F /  -4.8 °C 30.48in /  1032.1hPa Calm     84% 0.00in /  0mm 238.10 W/m2
12:09 27.6 °F /  -2.4 °C 23.7 °F /  -4.6 °C 30.48in /  1032.1hPa Calm     85% 0.00in /  0mm 238.10 W/m2
12:14 27.7 °F /  -2.4 °C 23.8 °F /  -4.6 °C 30.48in /  1032.1hPa Calm     85% 0.00in /  0mm 237.00 W/m2
12:19 27.8 °F /  -2.3 °C 23.9 °F /  -4.5 °C 30.48in /  1032.1hPa Calm     85% 0.00in /  0mm 242.10 W/m2
12:24 27.7 °F /  -2.4 °C 23.8 °F /  -4.6 °C 30.48in /  1032.1hPa Calm     85% 0.00in /  0mm 235.00 W/m2
12:29 27.6 °F /  -2.4 °C 23.7 °F /  -4.6 °C 30.48in /  1032.1hPa ESE 3.5mph /  5.6km/h 0.9mph /  1.4km/h 85% 0.00in /  0mm 236.00 W/m2
12:34 27.6 °F /  -2.4 °C 23.7 °F /  -4.6 °C 30.48in /  1032.1hPa ENE 1.2mph /  1.9km/h   85% 0.00in /  0mm 239.10 W/m2
12:39 27.6 °F /  -2.4 °C 23.7 °F /  -4.6 °C 30.48in /  1032.1hPa NE 3.5mph /  5.6km/h 0.2mph /  0.3km/h 85% 0.00in /  0mm 236.00 W/m2
12:44 27.6 °F /  -2.4 °C 23.7 °F /  -4.6 °C 30.48in /  1032.1hPa Calm   0.4mph /  0.6km/h 85% 0.00in /  0mm 239.10 W/m2
12:49 27.6 °F /  -2.4 °C 23.7 °F /  -4.6 °C 30.48in /  1032.1hPa Calm     85% 0.00in /  0mm 236.00 W/m2
12:54 27.6 °F /  -2.4 °C 23.7 °F /  -4.6 °C 30.48in /  1032.1hPa East 1.2mph /  1.9km/h 0.1mph /  0.2km/h 85% 0.00in /  0mm 232.00 W/m2
12:59 27.6 °F /  -2.4 °C 23.7 °F /  -4.6 °C 30.48in /  1032.1hPa Calm     85% 0.00in /  0mm 237.00 W/m2
13:04 27.7 °F /  -2.4 °C 23.8 °F /  -4.6 °C 30.48in /  1032.1hPa East 2.3mph /  3.7km/h 0.4mph /  0.6km/h 85% 0.00in /  0mm 241.10 W/m2
13:09 27.8 °F /  -2.3 °C 23.9 °F /  -4.5 °C 30.48in /  1032.1hPa ENE 1.2mph /  1.9km/h   85% 0.00in /  0mm 242.10 W/m2
13:14 27.8 °F /  -2.3 °C 23.9 °F /  -4.5 °C 30.48in /  1032.1hPa Calm     85% 0.00in /  0mm 241.10 W/m2
13:19 27.8 °F /  -2.3 °C 23.9 °F /  -4.5 °C 30.48in /  1032.1hPa Calm     85% 0.00in /  0mm 237.00 W/m2
13:24 27.8 °F /  -2.3 °C 23.6 °F /  -4.7 °C 30.48in /  1032.1hPa Calm     84% 0.00in /  0mm 235.00 W/m2
13:29 27.9 °F /  -2.3 °C 24.0 °F /  -4.4 °C 30.48in /  1032.1hPa Calm   0.1mph /  0.2km/h 85% 0.00in /  0mm 233.00 W/m2
13:34 28.0 °F /  -2.2 °C 23.8 °F /  -4.6 °C 30.48in /  1032.1hPa Calm     84% 0.00in /  0mm 242.10 W/m2
13:39 28.0 °F /  -2.2 °C 24.1 °F /  -4.4 °C 30.48in /  1032.1hPa East 1.0mph /  1.6km/h   85% 0.00in /  0mm 233.00 W/m2
13:44 28.0 °F /  -2.2 °C 23.8 °F /  -4.6 °C 30.48in /  1032.1hPa East 3.5mph /  5.6km/h 0.2mph /  0.3km/h 84% 0.00in /  0mm 226.90 W/m2
13:49 27.9 °F /  -2.3 °C 24.0 °F /  -4.4 °C 30.48in /  1032.1hPa Calm   0.1mph /  0.2km/h 85% 0.00in /  0mm 220.90 W/m2
13:54 27.8 °F /  -2.3 °C 23.9 °F /  -4.5 °C 30.48in /  1032.1hPa ENE 2.3mph /  3.7km/h 0.9mph /  1.4km/h 85% 0.00in /  0mm 227.90 W/m2
13:59 27.8 °F /  -2.3 °C 23.9 °F /  -4.5 °C 30.48in /  1032.1hPa Calm   0.1mph /  0.2km/h 85% 0.00in /  0mm 237.00 W/m2
14:04 27.8 °F /  -2.3 °C 24.2 °F /  -4.3 °C 30.49in /  1032.4hPa Calm   0.6mph /  1km/h 86% 0.00in /  0mm 235.00 W/m2
14:09 27.8 °F /  -2.3 °C 24.2 °F /  -4.3 °C 30.48in /  1032.1hPa ESE 1.2mph /  1.9km/h 0.4mph /  0.6km/h 86% 0.00in /  0mm 232.00 W/m2
14:14 27.7 °F /  -2.4 °C 24.1 °F /  -4.4 °C 30.49in /  1032.4hPa East 1.2mph /  1.9km/h 0.3mph /  0.5km/h 86% 0.00in /  0mm 226.90 W/m2
14:19 27.6 °F /  -2.4 °C 24.0 °F /  -4.4 °C 30.49in /  1032.4hPa Calm     86% 0.00in /  0mm 221.90 W/m2
14:24 27.6 °F /  -2.4 °C 24.2 °F /  -4.3 °C 30.49in /  1032.4hPa East 1.2mph /  1.9km/h   87% 0.00in /  0mm 214.80 W/m2
14:29 27.5 °F /  -2.5 °C 24.1 °F /  -4.4 °C 30.49in /  1032.4hPa ENE 1.2mph /  1.9km/h   87% 0.00in /  0mm 219.90 W/m2
14:34 27.5 °F /  -2.5 °C 24.1 °F /  -4.4 °C 30.49in /  1032.4hPa ENE 1.0mph /  1.6km/h 0.4mph /  0.6km/h 87% 0.00in /  0mm 212.80 W/m2
14:39 27.5 °F /  -2.5 °C 24.4 °F /  -4.2 °C 30.49in /  1032.4hPa ENE 2.0mph /  3.2km/h 0.3mph /  0.5km/h 88% 0.00in /  0mm 211.80 W/m2
14:44 27.4 °F /  -2.6 °C 24.3 °F /  -4.3 °C 30.49in /  1032.4hPa East 2.3mph /  3.7km/h 0.9mph /  1.4km/h 88% 0.00in /  0mm 211.80 W/m2
14:49 27.3 °F /  -2.6 °C 24.2 °F /  -4.3 °C 30.50in /  1032.7hPa Calm     88% 0.00in /  0mm 208.80 W/m2
14:54 27.3 °F /  -2.6 °C 24.2 °F /  -4.3 °C 30.50in /  1032.7hPa Calm     88% 0.00in /  0mm 208.80 W/m2
14:59 27.3 °F /  -2.6 °C 24.2 °F /  -4.3 °C 30.50in /  1032.7hPa Calm     88% 0.00in /  0mm 205.70 W/m2
15:04 27.3 °F /  -2.6 °C 24.2 °F /  -4.3 °C 30.50in /  1032.7hPa Calm     88% 0.00in /  0mm 200.70 W/m2
15:09 27.4 °F /  -2.6 °C 24.3 °F /  -4.3 °C 30.50in /  1032.7hPa Calm     88% 0.00in /  0mm 197.70 W/m2
15:14 27.4 °F /  -2.6 °C 24.3 °F /  -4.3 °C 30.50in /  1032.7hPa Calm   0.3mph /  0.5km/h 88% 0.00in /  0mm 198.70 W/m2
15:19 27.3 °F /  -2.6 °C 24.2 °F /  -4.3 °C 30.50in /  1032.7hPa NE 2.3mph /  3.7km/h 0.1mph /  0.2km/h 88% 0.00in /  0mm 197.70 W/m2
15:24 27.3 °F /  -2.6 °C 24.2 °F /  -4.3 °C 30.50in /  1032.7hPa Calm     88% 0.00in /  0mm 194.60 W/m2
15:29 27.2 °F /  -2.7 °C 24.1 °F /  -4.4 °C 30.50in /  1032.7hPa Calm     88% 0.00in /  0mm 192.60 W/m2
15:34 27.2 °F /  -2.7 °C 24.1 °F /  -4.4 °C 30.50in /  1032.7hPa East 1.2mph /  1.9km/h   88% 0.00in /  0mm 190.60 W/m2
15:39 27.1 °F /  -2.7 °C 24.0 °F /  -4.4 °C 30.50in /  1032.7hPa ENE 1.0mph /  1.6km/h 0.1mph /  0.2km/h 88% 0.00in /  0mm 186.50 W/m2
15:44 27.1 °F /  -2.7 °C 24.0 °F /  -4.4 °C 30.50in /  1032.7hPa Calm     88% 0.00in /  0mm 187.60 W/m2
15:49 27.1 °F /  -2.7 °C 24.0 °F /  -4.4 °C 30.50in /  1032.7hPa Calm     88% 0.00in /  0mm 184.50 W/m2
15:54 27.1 °F /  -2.7 °C 24.0 °F /  -4.4 °C 30.50in /  1032.7hPa Calm     88% 0.00in /  0mm 177.40 W/m2
15:59 27.2 °F /  -2.7 °C 24.1 °F /  -4.4 °C 30.50in /  1032.7hPa Calm     88% 0.00in /  0mm 173.40 W/m2
16:04 27.2 °F /  -2.7 °C 24.1 °F /  -4.4 °C 30.50in /  1032.7hPa Calm     88% 0.00in /  0mm 163.30 W/m2
16:09 27.2 °F /  -2.7 °C 24.1 °F /  -4.4 °C 30.51in /  1033.1hPa Calm     88% 0.00in /  0mm 161.30 W/m2
16:11 27.2 °F /  -2.7 °C 24.1 °F /  -4.4 °C 30.51in /  1033.1hPa Calm     88% 0.00in /  0mm 161.30 W/m2
16:19 27.2 °F /  -2.7 °C 24.1 °F /  -4.4 °C 30.51in /  1033.1hPa Calm     88% 0.00in /  0mm 140.10 W/m2
16:24 27.2 °F /  -2.7 °C 24.1 °F /  -4.4 °C 30.51in /  1033.1hPa Calm     88% 0.00in /  0mm 132.00 W/m2
16:29 27.2 °F /  -2.7 °C 24.1 °F /  -4.4 °C 30.51in /  1033.1hPa Calm     88% 0.00in /  0mm 128.00 W/m2
16:33 27.2 °F /  -2.7 °C 24.1 °F /  -4.4 °C 30.51in /  1033.1hPa Calm     88% 0.00in /  0mm 111.80 W/m2
16:39 27.2 °F /  -2.7 °C 24.1 °F /  -4.4 °C 30.51in /  1033.1hPa Calm     88% 0.00in /  0mm 111.80 W/m2
16:44 27.2 °F /  -2.7 °C 23.8 °F /  -4.6 °C 30.51in /  1033.1hPa ENE 1.2mph /  1.9km/h   87% 0.00in /  0mm 55.20 W/m2
16:49 27.1 °F /  -2.7 °C 23.7 °F /  -4.6 °C 30.51in /  1033.1hPa Calm     87% 0.00in /  0mm 15.80 W/m2
16:51 27.1 °F /  -2.7 °C 23.7 °F /  -4.6 °C 30.52in /  1033.4hPa Calm     87% 0.00in /  0mm 15.80 W/m2
16:59 27.1 °F /  -2.7 °C 24.0 °F /  -4.4 °C 30.52in /  1033.4hPa Calm     88% 0.00in /  0mm 0.00 W/m2
17:04 27.1 °F /  -2.7 °C 24.0 °F /  -4.4 °C 30.52in /  1033.4hPa Calm     88% 0.00in /  0mm 0.00 W/m2
17:06 27.1 °F /  -2.7 °C 24.0 °F /  -4.4 °C 30.52in /  1033.4hPa Calm     88% 0.00in /  0mm 0.00 W/m2
17:14 27.1 °F /  -2.7 °C 24.0 °F /  -4.4 °C 30.52in /  1033.4hPa Calm     88% 0.00in /  0mm 0.00 W/m2
17:19 27.0 °F /  -2.8 °C 23.9 °F /  -4.5 °C 30.52in /  1033.4hPa Calm     88% 0.00in /  0mm 0.00 W/m2
17:24 27.0 °F /  -2.8 °C 23.9 °F /  -4.5 °C 30.52in /  1033.4hPa Calm     88% 0.00in /  0mm 0.00 W/m2
17:29 27.0 °F /  -2.8 °C 23.9 °F /  -4.5 °C 30.52in /  1033.4hPa Calm     88% 0.00in /  0mm 0.00 W/m2
17:34 27.0 °F /  -2.8 °C 23.9 °F /  -4.5 °C 30.52in /  1033.4hPa Calm     88% 0.00in /  0mm 0.00 W/m2
17:39 27.0 °F /  -2.8 °C 23.9 °F /  -4.5 °C 30.52in /  1033.4hPa Calm     88% 0.00in /  0mm 0.00 W/m2
17:44 27.0 °F /  -2.8 °C 23.9 °F /  -4.5 °C 30.52in /  1033.4hPa Calm     88% 0.00in /  0mm 0.00 W/m2
17:49 26.9 °F /  -2.8 °C 23.8 °F /  -4.6 °C 30.52in /  1033.4hPa Calm     88% 0.00in /  0mm 0.00 W/m2
17:54 26.9 °F /  -2.8 °C 23.8 °F /  -4.6 °C 30.52in /  1033.4hPa Calm     88% 0.00in /  0mm 0.00 W/m2
17:59 26.9 °F /  -2.8 °C 23.8 °F /  -4.6 °C 30.52in /  1033.4hPa Calm     88% 0.00in /  0mm 0.00 W/m2
18:04 26.8 °F /  -2.9 °C 23.7 °F /  -4.6 °C 30.52in /  1033.4hPa Calm     88% 0.00in /  0mm 0.00 W/m2
18:09 26.8 °F /  -2.9 °C 23.7 °F /  -4.6 °C 30.52in /  1033.4hPa Calm     88% 0.00in /  0mm 0.00 W/m2
18:14 26.8 °F /  -2.9 °C 23.7 °F /  -4.6 °C 30.53in /  1033.7hPa Calm     88% 0.00in /  0mm 0.00 W/m2
18:19 26.8 °F /  -2.9 °C 23.7 °F /  -4.6 °C 30.53in /  1033.7hPa Calm     88% 0.00in /  0mm 0.00 W/m2
18:24 26.8 °F /  -2.9 °C 23.7 °F /  -4.6 °C 30.53in /  1033.7hPa Calm     88% 0.00in /  0mm 0.00 W/m2
18:29 26.8 °F /  -2.9 °C 23.7 °F /  -4.6 °C 30.53in /  1033.7hPa Calm     88% 0.00in /  0mm 0.00 W/m2
18:34 26.9 °F /  -2.8 °C 23.8 °F /  -4.6 °C 30.53in /  1033.7hPa Calm     88% 0.00in /  0mm 0.00 W/m2
18:39 26.9 °F /  -2.8 °C 23.8 °F /  -4.6 °C 30.53in /  1033.7hPa Calm     88% 0.00in /  0mm 0.00 W/m2
18:44 26.8 °F /  -2.9 °C 23.7 °F /  -4.6 °C 30.53in /  1033.7hPa Calm     88% 0.00in /  0mm 0.00 W/m2
18:49 26.8 °F /  -2.9 °C 23.7 °F /  -4.6 °C 30.53in /  1033.7hPa Calm     88% 0.00in /  0mm 0.00 W/m2
18:54 26.7 °F /  -2.9 °C 23.6 °F /  -4.7 °C 30.53in /  1033.7hPa ENE 2.3mph /  3.7km/h   88% 0.00in /  0mm 0.00 W/m2
18:59 26.7 °F /  -2.9 °C 23.6 °F /  -4.7 °C 30.53in /  1033.7hPa Calm     88% 0.00in /  0mm 0.00 W/m2
19:04 26.7 °F /  -2.9 °C 23.6 °F /  -4.7 °C 30.53in /  1033.7hPa Calm     88% 0.00in /  0mm 0.00 W/m2
19:09 26.7 °F /  -2.9 °C 23.6 °F /  -4.7 °C 30.53in /  1033.7hPa Calm     88% 0.00in /  0mm 0.00 W/m2
19:14 26.8 °F /  -2.9 °C 23.7 °F /  -4.6 °C 30.53in /  1033.7hPa Calm     88% 0.00in /  0mm 0.00 W/m2
19:19 26.8 °F /  -2.9 °C 23.7 °F /  -4.6 °C 30.53in /  1033.7hPa Calm     88% 0.00in /  0mm 0.00 W/m2
19:24 26.7 °F /  -2.9 °C 23.6 °F /  -4.7 °C 30.53in /  1033.7hPa Calm     88% 0.00in /  0mm 0.00 W/m2
19:28 26.7 °F /  -2.9 °C 23.6 °F /  -4.7 °C 30.53in /  1033.7hPa Calm     88% 0.00in /  0mm 0.00 W/m2
19:34 26.7 °F /  -2.9 °C 23.4 °F /  -4.8 °C 30.54in /  1034.1hPa Calm     87% 0.00in /  0mm 0.00 W/m2
19:39 26.7 °F /  -2.9 °C 23.4 °F /  -4.8 °C 30.53in /  1033.7hPa Calm     87% 0.00in /  0mm 0.00 W/m2
19:44 26.7 °F /  -2.9 °C 23.4 °F /  -4.8 °C 30.53in /  1033.7hPa ENE 2.3mph /  3.7km/h   87% 0.00in /  0mm 0.00 W/m2
19:49 26.6 °F /  -3 °C 23.3 °F /  -4.8 °C 30.53in /  1033.7hPa Calm     87% 0.00in /  0mm 0.00 W/m2
19:54 26.6 °F /  -3 °C 23.3 °F /  -4.8 °C 30.54in /  1034.1hPa Calm     87% 0.00in /  0mm 0.00 W/m2
19:59 26.6 °F /  -3 °C 23.3 °F /  -4.8 °C 30.54in /  1034.1hPa Calm     87% 0.00in /  0mm 0.00 W/m2
20:02 26.7 °F /  -2.9 °C 23.4 °F /  -4.8 °C 30.54in /  1034.1hPa Calm     87% 0.00in /  0mm 0.00 W/m2
20:09 26.6 °F /  -3 °C 23.3 °F /  -4.8 °C 30.54in /  1034.1hPa Calm     87% 0.00in /  0mm 0.00 W/m2
20:14 26.7 °F /  -2.9 °C 23.4 °F /  -4.8 °C 30.54in /  1034.1hPa Calm     87% 0.00in /  0mm 0.00 W/m2
20:19 26.6 °F /  -3 °C 23.3 °F /  -4.8 °C 30.54in /  1034.1hPa Calm     87% 0.00in /  0mm 0.00 W/m2
20:24 26.7 °F /  -2.9 °C 23.1 °F /  -4.9 °C 30.54in /  1034.1hPa Calm     86% 0.00in /  0mm 0.00 W/m2
20:29 26.7 °F /  -2.9 °C 23.4 °F /  -4.8 °C 30.54in /  1034.1hPa Calm     87% 0.00in /  0mm 0.00 W/m2
20:34 26.6 °F /  -3 °C 23.0 °F /  -5 °C 30.54in /  1034.1hPa Calm     86% 0.00in /  0mm 0.00 W/m2
20:39 26.6 °F /  -3 °C 23.0 °F /  -5 °C 30.54in /  1034.1hPa Calm     86% 0.00in /  0mm 0.00 W/m2
20:40 26.6 °F /  -3 °C 23.0 °F /  -5 °C 30.54in /  1034.1hPa Calm     86% 0.00in /  0mm 0.00 W/m2
20:49 26.6 °F /  -3 °C 23.0 °F /  -5 °C 30.54in /  1034.1hPa Calm     86% 0.00in /  0mm 0.00 W/m2
20:54 26.6 °F /  -3 °C 23.0 °F /  -5 °C 30.54in /  1034.1hPa Calm     86% 0.00in /  0mm 0.00 W/m2
20:59 26.6 °F /  -3 °C 23.0 °F /  -5 °C 30.54in /  1034.1hPa Calm     86% 0.00in /  0mm 0.00 W/m2
21:04 26.6 °F /  -3 °C 23.3 °F /  -4.8 °C 30.54in /  1034.1hPa Calm     87% 0.00in /  0mm 0.00 W/m2
21:09 26.6 °F /  -3 °C 23.0 °F /  -5 °C 30.54in /  1034.1hPa Calm     86% 0.00in /  0mm 0.00 W/m2
21:10 26.6 °F /  -3 °C 23.0 °F /  -5 °C 30.54in /  1034.1hPa Calm     86% 0.00in /  0mm 0.00 W/m2
21:19 26.6 °F /  -3 °C 23.0 °F /  -5 °C 30.54in /  1034.1hPa Calm     86% 0.00in /  0mm 0.00 W/m2
21:24 26.6 °F /  -3 °C 23.0 °F /  -5 °C 30.54in /  1034.1hPa Calm     86% 0.00in /  0mm 0.00 W/m2
21:27 26.6 °F /  -3 °C 23.0 °F /  -5 °C 30.54in /  1034.1hPa Calm     86% 0.00in /  0mm 0.00 W/m2
21:34 26.6 °F /  -3 °C 23.0 °F /  -5 °C 30.54in /  1034.1hPa Calm     86% 0.00in /  0mm 0.00 W/m2
21:39 26.6 °F /  -3 °C 23.0 °F /  -5 °C 30.54in /  1034.1hPa Calm     86% 0.00in /  0mm 0.00 W/m2
21:44 26.6 °F /  -3 °C 23.0 °F /  -5 °C 30.54in /  1034.1hPa Calm     86% 0.00in /  0mm 0.00 W/m2
21:49 26.6 °F /  -3 °C 23.0 °F /  -5 °C 30.54in /  1034.1hPa Calm     86% 0.00in /  0mm 0.00 W/m2
21:54 26.6 °F /  -3 °C 23.0 °F /  -5 °C 30.54in /  1034.1hPa Calm     86% 0.00in /  0mm 0.00 W/m2
21:59 26.6 °F /  -3 °C 23.0 °F /  -5 °C 30.54in /  1034.1hPa Calm     86% 0.00in /  0mm 0.00 W/m2
22:04 26.6 °F /  -3 °C 23.0 °F /  -5 °C 30.54in /  1034.1hPa Calm     86% 0.00in /  0mm 0.00 W/m2
22:09 26.6 °F /  -3 °C 23.0 °F /  -5 °C 30.54in /  1034.1hPa Calm     86% 0.00in /  0mm 0.00 W/m2
22:14 26.6 °F /  -3 °C 23.0 °F /  -5 °C 30.54in /  1034.1hPa Calm     86% 0.00in /  0mm 0.00 W/m2
22:19 26.5 °F /  -3.1 °C 22.9 °F /  -5.1 °C 30.54in /  1034.1hPa Calm     86% 0.00in /  0mm 0.00 W/m2
22:24 26.6 °F /  -3 °C 23.0 °F /  -5 °C 30.54in /  1034.1hPa Calm     86% 0.00in /  0mm 0.00 W/m2
22:29 26.6 °F /  -3 °C 23.0 °F /  -5 °C 30.54in /  1034.1hPa Calm     86% 0.00in /  0mm 0.00 W/m2
22:34 26.6 °F /  -3 °C 23.0 °F /  -5 °C 30.54in /  1034.1hPa Calm     86% 0.00in /  0mm 0.00 W/m2
22:39 26.6 °F /  -3 °C 22.7 °F /  -5.2 °C 30.54in /  1034.1hPa Calm     85% 0.00in /  0mm 0.00 W/m2
22:44 26.6 °F /  -3 °C 23.0 °F /  -5 °C 30.54in /  1034.1hPa Calm     86% 0.00in /  0mm 0.00 W/m2
22:49 26.5 °F /  -3.1 °C 22.9 °F /  -5.1 °C 30.54in /  1034.1hPa Calm     86% 0.00in /  0mm 0.00 W/m2
22:54 26.5 °F /  -3.1 °C 22.9 °F /  -5.1 °C 30.54in /  1034.1hPa Calm     86% 0.00in /  0mm 0.00 W/m2
22:59 26.4 °F /  -3.1 °C 22.8 °F /  -5.1 °C 30.54in /  1034.1hPa Calm     86% 0.00in /  0mm 0.00 W/m2
23:04 26.4 °F /  -3.1 °C 22.8 °F /  -5.1 °C 30.54in /  1034.1hPa Calm     86% 0.00in /  0mm 0.00 W/m2
23:09 26.4 °F /  -3.1 °C 22.8 °F /  -5.1 °C 30.54in /  1034.1hPa Calm     86% 0.00in /  0mm 0.00 W/m2
23:14 26.4 °F /  -3.1 °C 22.8 °F /  -5.1 °C 30.54in /  1034.1hPa Calm     86% 0.00in /  0mm 0.00 W/m2
23:19 26.4 °F /  -3.1 °C 22.8 °F /  -5.1 °C 30.54in /  1034.1hPa Calm     86% 0.00in /  0mm 0.00 W/m2
23:24 26.4 °F /  -3.1 °C 22.8 °F /  -5.1 °C 30.53in /  1033.7hPa Calm     86% 0.00in /  0mm 0.00 W/m2
23:29 26.4 °F /  -3.1 °C 22.8 °F /  -5.1 °C 30.53in /  1033.7hPa Calm     86% 0.00in /  0mm 0.00 W/m2
23:34 26.4 °F /  -3.1 °C 22.8 °F /  -5.1 °C 30.53in /  1033.7hPa Calm     86% 0.00in /  0mm 0.00 W/m2
23:39 26.4 °F /  -3.1 °C 22.8 °F /  -5.1 °C 30.53in /  1033.7hPa Calm     86% 0.00in /  0mm 0.00 W/m2
23:44 26.4 °F /  -3.1 °C 22.8 °F /  -5.1 °C 30.53in /  1033.7hPa Calm     86% 0.00in /  0mm 0.00 W/m2
23:49 26.3 °F /  -3.2 °C 22.7 °F /  -5.2 °C 30.53in /  1033.7hPa Calm     86% 0.00in /  0mm 0.00 W/m2
23:54 26.3 °F /  -3.2 °C 22.7 °F /  -5.2 °C 30.53in /  1033.7hPa Calm     86% 0.00in /  0mm 0.00 W/m2
23:59 26.3 °F /  -3.2 °C 22.7 °F /  -5.2 °C 30.52in /  1033.4hPa Calm     86% 0.00in /  0mm 0.00 W/m2
Winter, Wisconsin USA
Compliments of Weather Underground - 4 mb